Kamay, Texas
Current Conditions -  °F | °C
As of 7:35 PM on Sunday 23 Nov 2014 (Local Time) from KCWC Reporting Station
Scattered Clouds Scattered Clouds  
Wind Chill: 42°   Ceiling: Unl
Heat Index: 49°   Visibility: 10mi
Dew Point: 36°   Wind: 23mph
Humidity: 60%   Direction: 340°NNW
Pressure: 29.76"   Gusts: 33mph
Location:  33.86°N, 98.81°W
Report Text: KCWC 240135Z AUTO 34020G29KT 10SM SCT095 10/02 A2976 RMK AO2 T00960021
Loading
Personal Weather Stations






























Interactive Weather Map New forecast layout! Learn more

10-Day Weather Forecast

Advertisements
Track Severe Weather on mobile